createdAt,value
2023-03-02T00:02:47.105Z,-6.53
2023-03-02T00:05:50.971Z,-6.61
2023-03-02T00:08:55.683Z,-6.66
2023-03-02T00:11:59.559Z,-6.26
2023-03-02T00:15:03.273Z,-5.75
2023-03-02T00:18:07.624Z,-4.73
2023-03-02T00:21:12.021Z,-4.41
2023-03-02T00:24:18.557Z,-3.72
2023-03-02T00:27:23.400Z,-3.29
2023-03-02T00:30:27.770Z,-3.17
2023-03-02T00:33:33.096Z,-2.73
2023-03-02T00:36:37.505Z,-2.26
2023-03-02T00:39:42.293Z,-2.09
2023-03-02T00:42:46.738Z,-1.42
2023-03-02T00:45:50.640Z,-1.52
2023-03-02T00:48:54.724Z,-2.56
2023-03-02T00:51:59.290Z,-1.22
2023-03-02T00:55:03.175Z,-1.24
2023-03-02T00:58:07.312Z,-1.07
2023-03-02T01:01:13.765Z,0.24
2023-03-02T01:04:22.692Z,-0.23
2023-03-02T01:07:28.965Z,-0.36
2023-03-02T01:10:32.797Z,1.05
2023-03-02T01:13:36.994Z,1.43
2023-03-02T01:16:40.772Z,1.65
2023-03-02T01:19:45.956Z,2.35
2023-03-02T01:22:49.880Z,2.96
2023-03-02T01:25:53.911Z,2.32
2023-03-02T01:28:58.350Z,3.11
2023-03-02T01:32:02.955Z,0.26
2023-03-02T01:35:07.522Z,0.93
2023-03-02T01:38:11.246Z,1.44
2023-03-02T01:41:15.689Z,2.42
2023-03-02T01:44:52.750Z,0.72
2023-03-02T01:47:57.092Z,0.66
2023-03-02T01:51:02.918Z,1.84
2023-03-02T01:54:18.001Z,3.25
2023-03-02T01:57:27.171Z,2.48
2023-03-02T02:00:38.472Z,1.64
2023-03-02T02:03:48.512Z,1.60
2023-03-02T02:07:08.336Z,0.72
2023-03-02T02:10:13.734Z,0.60
2023-03-02T02:13:18.688Z,0.37
2023-03-02T02:16:23.044Z,0.24
2023-03-02T02:19:35.558Z,0.21
2023-03-02T02:23:02.001Z,-0.77
2023-03-02T02:26:21.759Z,-1.00
2023-03-02T02:29:38.874Z,0.33
2023-03-02T02:32:44.581Z,0.05
2023-03-02T02:35:50.015Z,-0.79
2023-03-02T02:38:56.869Z,-0.37
2023-03-02T02:42:08.318Z,-0.14
2023-03-02T02:45:24.575Z,0.38
2023-03-02T02:48:32.326Z,0.40
2023-03-02T02:51:37.313Z,-0.84
2023-03-02T02:54:43.051Z,-0.36
2023-03-02T02:57:46.739Z,-0.18
2023-03-02T03:00:50.895Z,0.28
2023-03-02T03:03:56.966Z,-0.01
2023-03-02T03:07:06.548Z,-0.39
2023-03-02T03:10:19.915Z,-0.82
2023-03-02T03:13:24.900Z,-0.32
2023-03-02T03:16:31.788Z,-0.61
2023-03-02T03:19:36.249Z,-0.76
2023-03-02T03:22:41.120Z,-0.86
2023-03-02T03:25:47.949Z,-0.69
2023-03-02T03:28:52.034Z,-0.36
2023-03-02T03:31:58.250Z,-1.00
2023-03-02T03:35:04.304Z,-0.53
2023-03-02T03:38:10.462Z,-0.42
2023-03-02T03:41:14.870Z,-0.35
2023-03-02T03:44:19.506Z,-1.73
2023-03-02T03:47:24.090Z,-1.63
2023-03-02T03:50:29.561Z,-0.75
2023-03-02T03:53:34.523Z,-0.48
2023-03-02T03:56:43.992Z,-0.98
2023-03-02T03:59:49.233Z,-1.03
2023-03-02T04:02:53.797Z,-1.09
2023-03-02T04:05:58.497Z,-0.49
2023-03-02T04:09:05.714Z,-0.67
2023-03-02T04:12:12.768Z,-0.18
2023-03-02T04:15:21.360Z,-0.88
2023-03-02T04:18:27.834Z,-0.54
2023-03-02T04:21:31.823Z,-0.51
2023-03-02T04:24:35.723Z,-0.02
2023-03-02T04:27:41.866Z,-0.27
2023-03-02T04:30:46.607Z,-0.21
2023-03-02T04:33:51.353Z,-0.85
2023-03-02T04:36:56.405Z,-0.95
2023-03-02T04:40:00.764Z,-0.38
2023-03-02T04:43:06.892Z,-0.44
2023-03-02T04:46:16.764Z,-0.76
2023-03-02T04:49:21.989Z,-0.54
2023-03-02T04:52:26.181Z,-1.07
2023-03-02T04:55:30.001Z,-0.84
2023-03-02T04:58:34.283Z,-1.00
2023-03-02T05:01:38.689Z,-0.98
2023-03-02T05:04:43.010Z,-1.11
2023-03-02T05:07:47.371Z,-1.09
2023-03-02T05:10:51.860Z,-1.11
2023-03-02T05:14:02.326Z,-1.34
2023-03-02T05:17:06.237Z,-1.03
2023-03-02T05:20:12.669Z,-1.31
2023-03-02T05:23:25.484Z,-0.96
2023-03-02T05:26:30.001Z,-1.05
2023-03-02T05:29:34.643Z,-1.38
2023-03-02T05:32:39.087Z,-1.09
2023-03-02T05:35:44.175Z,-0.74
2023-03-02T05:38:48.673Z,-0.50
2023-03-02T05:41:52.955Z,-0.85
2023-03-02T05:44:57.538Z,-1.25
2023-03-02T05:48:02.189Z,0.07
2023-03-02T05:51:07.147Z,0.09
2023-03-02T05:54:11.462Z,-0.03
2023-03-02T05:57:15.714Z,0.29
2023-03-02T06:00:20.067Z,-0.01
2023-03-02T06:03:24.271Z,-0.10
2023-03-02T06:06:28.262Z,-0.04
2023-03-02T06:09:32.021Z,-0.15
2023-03-02T06:12:36.222Z,-0.34
2023-03-02T06:15:41.519Z,0.06
2023-03-02T06:18:45.824Z,0.33
2023-03-02T06:21:50.346Z,0.19
2023-03-02T06:24:55.932Z,0.13
2023-03-02T06:27:59.666Z,-0.14
2023-03-02T06:31:04.092Z,-0.55
2023-03-02T06:34:08.369Z,-0.05
2023-03-02T06:37:12.820Z,0.07
2023-03-02T06:40:17.504Z,0.13
2023-03-02T06:43:21.401Z,0.12
2023-03-02T06:46:25.784Z,-0.01
2023-03-02T06:49:30.112Z,-0.42
2023-03-02T06:52:34.541Z,-1.04
2023-03-02T06:55:38.827Z,-1.09
2023-03-02T06:58:43.044Z,-0.76
2023-03-02T07:01:47.812Z,-0.48
2023-03-02T07:04:51.602Z,-0.38
2023-03-02T07:07:55.347Z,-0.38
2023-03-02T07:10:59.464Z,-0.50
2023-03-02T07:14:04.543Z,-0.47
2023-03-02T07:17:09.620Z,-1.11
2023-03-02T07:20:16.617Z,-1.10
2023-03-02T07:23:21.609Z,-1.55
2023-03-02T07:26:25.867Z,-1.11
2023-03-02T07:29:30.620Z,-1.54
2023-03-02T07:32:35.495Z,-1.64
2023-03-02T07:35:40.229Z,-1.41
2023-03-02T07:38:44.644Z,-1.76
2023-03-02T07:41:49.270Z,-2.15
2023-03-02T07:44:58.121Z,-1.62
2023-03-02T07:48:02.922Z,-1.39
2023-03-02T07:51:07.950Z,-1.66
2023-03-02T07:54:12.532Z,-1.46
2023-03-02T07:57:17.041Z,-1.41
2023-03-02T08:00:22.247Z,-1.54
2023-03-02T08:03:26.673Z,-1.51
2023-03-02T08:06:31.710Z,-1.28
2023-03-02T08:09:35.876Z,-1.86
2023-03-02T08:12:40.098Z,-2.29
2023-03-02T08:15:44.402Z,-1.91
2023-03-02T08:18:48.708Z,-1.99
2023-03-02T08:21:52.720Z,-1.85
2023-03-02T08:24:59.092Z,-2.11
2023-03-02T08:28:03.412Z,-2.59
2023-03-02T08:31:09.069Z,-2.60
2023-03-02T08:34:13.542Z,-2.82
2023-03-02T08:37:18.064Z,-2.93
2023-03-02T08:40:22.737Z,-3.18
2023-03-02T08:43:27.384Z,-3.61
2023-03-02T08:46:32.378Z,-3.49
2023-03-02T08:49:38.770Z,-3.41
2023-03-02T08:52:43.085Z,-3.51
2023-03-02T08:55:47.594Z,-3.87
2023-03-02T08:58:53.313Z,-3.77
2023-03-02T09:01:58.231Z,-3.98
2023-03-02T09:05:02.492Z,-3.63
2023-03-02T09:08:07.777Z,-3.81
2023-03-02T09:11:13.696Z,-3.43
2023-03-02T09:14:17.481Z,-3.28
2023-03-02T09:17:22.840Z,-3.36
2023-03-02T09:20:27.202Z,-3.86
2023-03-02T09:23:32.140Z,-3.89
2023-03-02T09:26:36.767Z,-3.98
2023-03-02T09:29:40.772Z,-3.72
2023-03-02T09:32:45.789Z,-3.60
2023-03-02T09:35:51.062Z,-3.67
2023-03-02T09:38:56.221Z,-3.66
2023-03-02T09:42:12.686Z,-3.95
2023-03-02T09:45:22.554Z,-3.96
2023-03-02T09:48:34.619Z,-4.31
2023-03-02T09:51:51.687Z,-4.21
2023-03-02T09:54:57.505Z,-4.40
2023-03-02T09:58:06.739Z,-4.87
2023-03-02T10:01:17.281Z,-4.91
2023-03-02T10:04:30.704Z,-5.11
2023-03-02T10:07:38.960Z,-5.08
2023-03-02T10:10:54.052Z,-5.12
2023-03-02T10:14:08.151Z,-5.17
2023-03-02T10:17:44.733Z,-4.90
2023-03-02T10:21:14.159Z,-5.13
2023-03-02T10:24:37.132Z,-5.02
2023-03-02T10:27:44.801Z,-5.03
2023-03-02T10:31:09.032Z,-4.82
2023-03-02T10:34:17.725Z,-4.94
2023-03-02T10:37:32.974Z,-4.81
2023-03-02T10:40:45.455Z,-4.83
2023-03-02T10:43:56.518Z,-4.69
2023-03-02T10:47:01.301Z,-4.81
2023-03-02T10:50:23.996Z,-4.79
2023-03-02T10:53:29.919Z,-5.01
2023-03-02T10:56:36.195Z,-5.36
2023-03-02T10:59:51.542Z,-5.32
2023-03-02T11:03:00.088Z,-5.40
2023-03-02T11:06:23.601Z,-5.94
2023-03-02T11:09:27.945Z,-5.52
2023-03-02T11:12:33.974Z,-5.44
2023-03-02T11:15:50.578Z,-5.51
2023-03-02T11:18:57.766Z,-5.43
2023-03-02T11:22:41.150Z,-5.73
2023-03-02T11:25:53.344Z,-5.65
2023-03-02T11:29:31.394Z,-5.74
2023-03-02T11:32:50.074Z,-5.94
2023-03-02T11:35:59.076Z,-6.22
2023-03-02T11:39:10.130Z,-6.04
2023-03-02T11:42:32.533Z,-6.17
2023-03-02T11:45:43.154Z,-5.71
2023-03-02T11:48:52.463Z,-5.67
2023-03-02T11:52:01.588Z,-5.64
2023-03-02T11:55:23.455Z,-5.69
2023-03-02T11:58:30.927Z,-5.91
2023-03-02T12:01:38.651Z,-6.07
2023-03-02T12:04:43.623Z,-6.46
2023-03-02T12:08:04.972Z,-6.09
2023-03-02T12:11:18.277Z,-5.87
2023-03-02T12:14:31.178Z,-5.88
2023-03-02T12:17:35.832Z,-5.97
2023-03-02T12:20:42.356Z,-6.15
2023-03-02T12:23:52.088Z,-5.99
2023-03-02T12:27:06.997Z,-6.02
2023-03-02T12:30:24.538Z,-6.00
2023-03-02T12:33:28.477Z,-5.88
2023-03-02T12:36:42.544Z,-6.09
2023-03-02T12:39:48.438Z,-6.22
2023-03-02T12:43:11.805Z,-6.20
2023-03-02T12:46:48.602Z,-6.46
2023-03-02T12:49:56.028Z,-6.83
2023-03-02T12:53:06.142Z,-6.78
2023-03-02T12:56:10.666Z,-6.93
2023-03-02T12:59:28.392Z,-6.94
2023-03-02T13:03:05.781Z,-8.24
2023-03-02T13:06:17.525Z,-6.60
2023-03-02T13:09:25.105Z,-6.88
2023-03-02T13:12:30.197Z,-6.66
2023-03-02T13:15:34.616Z,-6.45
2023-03-02T13:18:40.481Z,-6.73
2023-03-02T13:21:44.819Z,-6.85
2023-03-02T13:24:57.253Z,-6.83
2023-03-02T13:28:08.840Z,-6.51
2023-03-02T13:31:20.455Z,-6.36
2023-03-02T13:34:27.626Z,-6.44
2023-03-02T13:37:44.465Z,-6.46
2023-03-02T13:40:52.132Z,-6.57
2023-03-02T13:43:56.654Z,-6.37
2023-03-02T13:47:02.600Z,-6.41
2023-03-02T13:50:10.823Z,-6.17
2023-03-02T13:53:14.871Z,-6.36
2023-03-02T13:56:19.822Z,-6.43
2023-03-02T13:59:24.413Z,-6.35
2023-03-02T14:02:30.999Z,-6.41
2023-03-02T14:05:40.719Z,-7.92
2023-03-02T14:08:45.028Z,-6.20
2023-03-02T14:11:52.841Z,-5.99
2023-03-02T14:15:01.592Z,-6.09
2023-03-02T14:18:24.545Z,-6.07
2023-03-02T14:21:29.745Z,-6.26
2023-03-02T14:24:34.694Z,-5.98
2023-03-02T14:27:40.984Z,-6.13
2023-03-02T14:30:47.851Z,-6.11
2023-03-02T14:33:53.384Z,-5.85
2023-03-02T14:37:00.320Z,-6.06
2023-03-02T14:40:07.171Z,-5.98
2023-03-02T14:43:11.403Z,-5.99
2023-03-02T14:46:15.672Z,-5.85
2023-03-02T14:49:20.538Z,-5.65
2023-03-02T14:52:42.330Z,-5.69
2023-03-02T14:55:48.002Z,-5.81
2023-03-02T14:58:55.435Z,-5.38
2023-03-02T15:02:06.184Z,-5.37
2023-03-02T15:05:17.414Z,-5.41
2023-03-02T15:08:29.711Z,-5.57
2023-03-02T15:11:34.819Z,-5.58
2023-03-02T15:14:39.463Z,-5.50
2023-03-02T15:17:46.077Z,-5.37
2023-03-02T15:20:50.464Z,-5.25
2023-03-02T15:23:55.096Z,-5.56
2023-03-02T15:26:59.844Z,-5.58
2023-03-02T15:30:04.452Z,-5.37
2023-03-02T15:33:09.020Z,-5.60
2023-03-02T15:36:13.770Z,-5.38
2023-03-02T15:39:18.187Z,-5.32
2023-03-02T15:42:22.944Z,-5.32
2023-03-02T15:45:28.408Z,-5.71
2023-03-02T15:48:32.802Z,-5.12
2023-03-02T15:51:39.422Z,-5.28
2023-03-02T15:54:43.387Z,-5.29
2023-03-02T15:57:47.387Z,-5.45
2023-03-02T16:00:54.157Z,-5.39
2023-03-02T16:04:01.349Z,-5.46
2023-03-02T16:07:05.754Z,-5.60
2023-03-02T16:10:15.850Z,-5.83
2023-03-02T16:13:19.890Z,-5.60
2023-03-02T16:16:24.413Z,-5.78
2023-03-02T16:19:28.806Z,-5.83
2023-03-02T16:22:33.105Z,-6.01
2023-03-02T16:25:40.716Z,-5.56
2023-03-02T16:28:45.198Z,-5.56
2023-03-02T16:31:50.248Z,-5.58
2023-03-02T16:34:56.199Z,-5.80
2023-03-02T16:38:00.410Z,-5.50
2023-03-02T16:41:06.372Z,-5.54
2023-03-02T16:44:12.556Z,-5.61
2023-03-02T16:47:16.644Z,-5.86
2023-03-02T16:50:20.960Z,-5.96
2023-03-02T16:53:25.678Z,-5.75
2023-03-02T16:56:29.899Z,-5.62
2023-03-02T16:59:33.884Z,-5.96
2023-03-02T17:02:38.111Z,-6.26
2023-03-02T17:05:44.237Z,-6.05
2023-03-02T17:08:48.329Z,-5.94
2023-03-02T17:11:52.249Z,-6.01
2023-03-02T17:14:56.159Z,-5.96
2023-03-02T17:18:00.215Z,-6.00
2023-03-02T17:21:05.922Z,-6.01
2023-03-02T17:24:10.268Z,-6.03
2023-03-02T17:27:24.645Z,-6.28
2023-03-02T17:30:29.921Z,-6.55
2023-03-02T17:33:34.856Z,-6.79
2023-03-02T17:36:39.446Z,-6.56
2023-03-02T17:39:43.878Z,-6.62
2023-03-02T17:42:48.245Z,-6.34
2023-03-02T17:45:52.120Z,-6.50
2023-03-02T17:48:58.348Z,-6.63
2023-03-02T17:52:02.253Z,-6.69
2023-03-02T17:55:06.756Z,-6.64
2023-03-02T17:58:11.022Z,-6.91
2023-03-02T18:01:16.554Z,-6.59
2023-03-02T18:04:20.929Z,-6.86
2023-03-02T18:07:25.185Z,-6.67
2023-03-02T18:10:29.668Z,-6.38
2023-03-02T18:13:33.762Z,-6.85
2023-03-02T18:16:37.990Z,-6.63
2023-03-02T18:19:42.773Z,-6.53
2023-03-02T18:22:47.278Z,-7.18
2023-03-02T18:25:51.684Z,-6.90
2023-03-02T18:28:56.379Z,-7.66
2023-03-02T18:32:01.916Z,-6.65
2023-03-02T18:35:06.769Z,-6.45
2023-03-02T18:38:11.240Z,-6.79
2023-03-02T18:41:16.002Z,-7.01
2023-03-02T18:44:20.789Z,-6.86
2023-03-02T18:47:25.106Z,-6.73
2023-03-02T18:50:30.627Z,-6.86
2023-03-02T18:53:35.125Z,-6.76
2023-03-02T18:56:41.350Z,-6.81
2023-03-02T18:59:45.624Z,-6.84
2023-03-02T19:02:50.502Z,-6.75
2023-03-02T19:05:57.965Z,-6.64
2023-03-02T19:09:02.123Z,-6.64
2023-03-02T19:12:06.701Z,-6.87
2023-03-02T19:15:14.546Z,-6.87
2023-03-02T19:18:22.646Z,-6.99
2023-03-02T19:21:26.962Z,-6.91
2023-03-02T19:24:31.713Z,-6.83
2023-03-02T19:27:35.950Z,-7.07
2023-03-02T19:30:40.821Z,-7.19
2023-03-02T19:33:46.106Z,-7.34
2023-03-02T19:36:50.670Z,-7.31
2023-03-02T19:39:55.183Z,-7.13
2023-03-02T19:42:59.731Z,-7.47
2023-03-02T19:46:05.727Z,-7.52
2023-03-02T19:49:10.296Z,-7.66
2023-03-02T19:52:14.175Z,-7.23
2023-03-02T19:55:18.434Z,-7.36
2023-03-02T19:58:24.471Z,-7.47
2023-03-02T20:01:30.733Z,-7.31
2023-03-02T20:04:35.117Z,-7.17
2023-03-02T20:07:41.637Z,-7.14
2023-03-02T20:10:47.892Z,-7.17
2023-03-02T20:13:53.986Z,-6.88
2023-03-02T20:16:58.643Z,-6.95
2023-03-02T20:20:04.433Z,-7.08
2023-03-02T20:23:09.383Z,-7.17
2023-03-02T20:26:13.834Z,-7.31
2023-03-02T20:29:19.509Z,-6.88
2023-03-02T20:32:23.543Z,-6.78
2023-03-02T20:35:31.942Z,-7.01
2023-03-02T20:38:39.662Z,-7.02
2023-03-02T20:41:44.071Z,-7.10
2023-03-02T20:44:48.471Z,-7.02
2023-03-02T20:47:52.774Z,-7.30
2023-03-02T20:50:59.866Z,-7.58
2023-03-02T20:54:05.960Z,-7.66
2023-03-02T20:57:12.405Z,-7.37
2023-03-02T21:00:21.458Z,-7.16
2023-03-02T21:03:25.544Z,-7.28
2023-03-02T21:06:35.306Z,-7.07
2023-03-02T21:09:40.117Z,-7.13
2023-03-02T21:12:45.458Z,-7.42
2023-03-02T21:15:50.403Z,-7.05
2023-03-02T21:18:58.244Z,-7.08
2023-03-02T21:22:03.103Z,-7.13
2023-03-02T21:25:10.084Z,-7.30
2023-03-02T21:28:14.376Z,-7.59
2023-03-02T21:31:20.464Z,-7.41
2023-03-02T21:34:25.303Z,-7.34
2023-03-02T21:37:29.726Z,-7.48
2023-03-02T21:40:38.534Z,-7.75
2023-03-02T21:43:43.133Z,-7.80
2023-03-02T21:46:59.346Z,-7.37
2023-03-02T21:50:03.347Z,-7.57
2023-03-02T21:53:08.387Z,-8.05
2023-03-02T21:56:21.208Z,-8.01
2023-03-02T21:59:25.471Z,-7.32
2023-03-02T22:02:29.852Z,-7.31
2023-03-02T22:05:35.282Z,-6.95
2023-03-02T22:08:40.111Z,-6.87
2023-03-02T22:11:44.721Z,-6.84
2023-03-02T22:14:48.961Z,-6.72
2023-03-02T22:17:53.482Z,-7.05
2023-03-02T22:20:57.894Z,-7.23
2023-03-02T22:24:11.849Z,-7.15
2023-03-02T22:27:29.873Z,-7.05
2023-03-02T22:30:34.193Z,-7.01
2023-03-02T22:33:38.844Z,-7.04
2023-03-02T22:36:43.349Z,-7.17
2023-03-02T22:39:49.536Z,-6.92
2023-03-02T22:43:03.147Z,-6.65
2023-03-02T22:46:16.202Z,-6.59
2023-03-02T22:49:20.603Z,-6.92
2023-03-02T22:52:26.884Z,-6.50
2023-03-02T22:55:41.525Z,-6.69
2023-03-02T22:58:50.209Z,-6.13
2023-03-02T23:02:08.948Z,-5.80
2023-03-02T23:05:31.936Z,-4.99
2023-03-02T23:08:36.229Z,-5.05
2023-03-02T23:11:43.047Z,-4.58
2023-03-02T23:14:54.311Z,-3.55
2023-03-02T23:17:58.900Z,-3.30
2023-03-02T23:21:03.277Z,-2.88
2023-03-02T23:24:09.657Z,-3.69
2023-03-02T23:27:14.041Z,-3.43
2023-03-02T23:30:21.411Z,-3.61
2023-03-02T23:33:25.727Z,-2.93
2023-03-02T23:36:31.643Z,-2.74
2023-03-02T23:39:36.085Z,-1.41
2023-03-02T23:42:40.633Z,-0.99
2023-03-02T23:45:44.922Z,-1.54
2023-03-02T23:48:49.422Z,-1.82
2023-03-02T23:51:53.722Z,-1.53
2023-03-02T23:54:58.001Z,-1.43
2023-03-02T23:58:02.398Z,-1.95
